createdAt,value
2023-05-19T00:00:48.519Z,86.30
2023-05-19T00:03:17.941Z,86.50
2023-05-19T00:05:46.420Z,85.70
2023-05-19T00:08:14.260Z,86.10
2023-05-19T00:10:41.306Z,85.60
2023-05-19T00:13:08.505Z,85.40
2023-05-19T00:15:35.434Z,85.80
2023-05-19T00:18:02.664Z,85.60
2023-05-19T00:20:29.432Z,85.70
2023-05-19T00:22:57.340Z,85.70
2023-05-19T00:25:26.401Z,86.40
2023-05-19T00:27:53.548Z,86.70
2023-05-19T00:30:22.794Z,86.00
2023-05-19T00:32:50.981Z,86.70
2023-05-19T00:35:17.949Z,86.20
2023-05-19T00:37:45.915Z,85.50
2023-05-19T00:40:12.711Z,86.50
2023-05-19T00:42:39.893Z,86.10
2023-05-19T00:45:06.946Z,85.60
2023-05-19T00:47:33.906Z,85.80
2023-05-19T00:50:00.934Z,86.40
2023-05-19T00:52:28.045Z,85.80
2023-05-19T00:54:55.709Z,84.90
2023-05-19T00:57:22.493Z,87.10
2023-05-19T00:59:49.428Z,85.60
2023-05-19T01:02:16.439Z,85.90
2023-05-19T01:04:44.009Z,86.40
2023-05-19T01:07:12.669Z,85.80
2023-05-19T01:09:40.675Z,85.40
2023-05-19T01:12:08.014Z,87.10
2023-05-19T01:14:34.768Z,87.20
2023-05-19T01:17:05.847Z,87.00
2023-05-19T01:19:35.277Z,86.30
2023-05-19T01:22:13.317Z,87.20
2023-05-19T01:24:59.095Z,87.30
2023-05-19T01:27:34.834Z,87.80
2023-05-19T01:30:25.329Z,86.70
2023-05-19T01:32:54.116Z,86.70
2023-05-19T01:35:24.135Z,86.40
2023-05-19T01:37:52.377Z,86.40
2023-05-19T01:40:20.368Z,87.10
2023-05-19T01:42:47.301Z,87.10
2023-05-19T01:45:13.992Z,87.00
2023-05-19T01:47:42.905Z,86.70
2023-05-19T01:50:10.070Z,86.70
2023-05-19T01:52:37.018Z,87.40
2023-05-19T01:55:03.840Z,87.90
2023-05-19T01:57:37.611Z,87.80
2023-05-19T02:00:10.093Z,88.10
2023-05-19T02:03:12.571Z,88.10
2023-05-19T02:05:57.451Z,88.00
2023-05-19T02:08:27.492Z,88.10
2023-05-19T02:10:57.707Z,88.20
2023-05-19T02:13:27.300Z,89.40
2023-05-19T02:15:55.374Z,89.10
2023-05-19T02:18:22.590Z,89.00
2023-05-19T02:20:49.468Z,89.40
2023-05-19T02:23:16.123Z,89.50
2023-05-19T02:25:44.243Z,90.00
2023-05-19T02:28:11.215Z,89.90
2023-05-19T02:30:39.464Z,89.80
2023-05-19T02:33:06.616Z,90.10
2023-05-19T02:35:34.834Z,89.90
2023-05-19T02:38:01.608Z,90.20
2023-05-19T02:40:28.453Z,90.20
2023-05-19T02:42:55.342Z,89.70
2023-05-19T02:45:22.400Z,89.70
2023-05-19T02:47:49.136Z,89.40
2023-05-19T02:50:15.985Z,89.50
2023-05-19T02:52:44.908Z,89.80
2023-05-19T02:55:17.179Z,90.00
2023-05-19T02:57:46.338Z,90.00
2023-05-19T03:00:13.432Z,89.90
2023-05-19T03:02:41.655Z,89.60
2023-05-19T03:05:08.694Z,89.50
2023-05-19T03:07:35.425Z,89.40
2023-05-19T03:10:06.580Z,89.50
2023-05-19T03:12:33.590Z,89.20
2023-05-19T03:15:00.567Z,89.20
2023-05-19T03:17:28.930Z,89.20
2023-05-19T03:19:55.801Z,89.10
2023-05-19T03:22:22.463Z,89.50
2023-05-19T03:24:51.232Z,88.90
2023-05-19T03:27:18.065Z,88.50
2023-05-19T03:29:44.941Z,88.30
2023-05-19T03:32:11.872Z,88.70
2023-05-19T03:34:38.586Z,88.30
2023-05-19T03:37:05.554Z,88.30
2023-05-19T03:39:32.432Z,88.00
2023-05-19T03:41:59.159Z,88.00
2023-05-19T03:44:26.445Z,88.10
2023-05-19T03:46:53.092Z,87.80
2023-05-19T03:49:19.763Z,87.40
2023-05-19T03:51:47.200Z,87.60
2023-05-19T03:54:14.053Z,87.50
2023-05-19T03:56:42.395Z,87.20
2023-05-19T03:59:10.854Z,87.10
2023-05-19T04:01:38.265Z,86.80
2023-05-19T04:04:04.972Z,86.70
2023-05-19T04:06:31.853Z,86.90
2023-05-19T04:08:58.506Z,86.60
2023-05-19T04:11:25.374Z,86.60
2023-05-19T04:13:52.157Z,86.20
2023-05-19T04:16:19.164Z,86.30
2023-05-19T04:18:46.454Z,86.50
2023-05-19T04:21:13.265Z,86.60
2023-05-19T04:23:39.972Z,86.80
2023-05-19T04:26:07.070Z,86.50
2023-05-19T04:28:36.671Z,86.50
2023-05-19T04:31:04.441Z,86.60
2023-05-19T04:33:31.316Z,86.40
2023-05-19T04:35:59.664Z,86.60
2023-05-19T04:38:26.365Z,85.30
2023-05-19T04:40:53.778Z,85.50
2023-05-19T04:43:22.296Z,85.20
2023-05-19T04:45:51.624Z,84.90
2023-05-19T04:48:19.036Z,84.60
2023-05-19T04:50:49.022Z,83.90
2023-05-19T04:53:15.758Z,84.30
2023-05-19T04:55:42.649Z,83.60
2023-05-19T04:58:12.718Z,83.20
2023-05-19T05:00:39.416Z,83.60
2023-05-19T05:03:07.340Z,83.40
2023-05-19T05:05:34.612Z,82.70
2023-05-19T05:08:01.408Z,82.50
2023-05-19T05:10:28.194Z,82.30
2023-05-19T05:12:55.261Z,82.00
2023-05-19T05:15:22.236Z,82.00
2023-05-19T05:17:49.079Z,80.70
2023-05-19T05:20:16.439Z,79.40
2023-05-19T05:22:43.279Z,78.90
2023-05-19T05:25:10.495Z,76.10
2023-05-19T05:27:37.693Z,73.30
2023-05-19T05:30:04.654Z,73.10
2023-05-19T05:32:31.715Z,71.20
2023-05-19T05:34:58.748Z,69.20
2023-05-19T05:37:25.719Z,67.40
2023-05-19T05:39:53.448Z,67.20
2023-05-19T05:42:20.294Z,67.20
2023-05-19T05:44:47.136Z,67.90
2023-05-19T05:47:15.609Z,65.70
2023-05-19T05:49:44.142Z,65.80
2023-05-19T05:52:12.150Z,64.80
2023-05-19T05:54:39.413Z,65.30
2023-05-19T05:57:06.306Z,66.00
2023-05-19T05:59:34.012Z,65.10
2023-05-19T06:02:03.199Z,65.30
2023-05-19T06:04:32.054Z,64.20
2023-05-19T06:07:01.619Z,64.80
2023-05-19T06:09:29.772Z,63.40
2023-05-19T06:11:57.978Z,64.00
2023-05-19T06:14:24.677Z,63.00
2023-05-19T06:16:51.976Z,63.50
2023-05-19T06:19:20.133Z,61.50
2023-05-19T06:21:47.312Z,61.90
2023-05-19T06:24:13.967Z,62.10
2023-05-19T06:26:48.237Z,62.60
2023-05-19T06:29:17.162Z,63.60
2023-05-19T06:31:44.476Z,62.20
2023-05-19T06:34:16.604Z,62.40
2023-05-19T06:36:43.346Z,63.80
2023-05-19T06:39:10.704Z,63.60
2023-05-19T06:41:37.772Z,64.70
2023-05-19T06:44:06.856Z,64.10
2023-05-19T06:46:33.736Z,63.80
2023-05-19T06:49:01.791Z,63.80
2023-05-19T06:51:31.401Z,64.50
2023-05-19T06:53:59.202Z,65.40
2023-05-19T06:56:26.868Z,63.80
2023-05-19T06:58:53.556Z,63.70
2023-05-19T07:01:20.332Z,63.30
2023-05-19T07:03:47.101Z,62.80
2023-05-19T07:06:15.372Z,63.00
2023-05-19T07:08:42.058Z,62.60
2023-05-19T07:11:09.142Z,63.40
2023-05-19T07:13:35.748Z,63.80
2023-05-19T07:16:02.420Z,62.90
2023-05-19T07:18:31.865Z,62.90
2023-05-19T07:20:58.969Z,63.10
2023-05-19T07:23:25.636Z,63.50
2023-05-19T07:25:59.085Z,62.20
2023-05-19T07:28:25.822Z,63.00
2023-05-19T07:30:53.164Z,64.20
2023-05-19T07:33:19.908Z,64.60
2023-05-19T07:35:46.647Z,64.90
2023-05-19T07:38:13.320Z,64.70
2023-05-19T07:40:40.014Z,65.50
2023-05-19T07:43:06.691Z,65.00
2023-05-19T07:45:33.460Z,64.80
2023-05-19T07:48:00.590Z,64.40
2023-05-19T07:50:27.318Z,64.00
2023-05-19T07:52:54.329Z,64.20
2023-05-19T07:55:23.153Z,65.40
2023-05-19T07:57:51.697Z,65.40
2023-05-19T08:00:18.697Z,64.90
2023-05-19T08:02:45.899Z,65.00
2023-05-19T08:05:12.801Z,64.30
2023-05-19T08:07:39.781Z,63.00
2023-05-19T08:10:06.666Z,63.10
2023-05-19T08:12:36.420Z,63.80
2023-05-19T08:15:04.502Z,64.00
2023-05-19T08:17:31.717Z,65.20
2023-05-19T08:19:58.752Z,63.40
2023-05-19T08:22:25.945Z,62.90
2023-05-19T08:24:53.151Z,63.00
2023-05-19T08:27:21.772Z,62.10
2023-05-19T08:29:48.813Z,62.70
2023-05-19T08:32:18.017Z,62.30
2023-05-19T08:34:44.690Z,63.50
2023-05-19T08:37:12.150Z,61.70
2023-05-19T08:39:40.602Z,61.80
2023-05-19T08:42:10.396Z,62.50
2023-05-19T08:44:37.871Z,63.10
2023-05-19T08:47:05.435Z,63.30
2023-05-19T08:49:33.230Z,62.00
2023-05-19T08:52:10.132Z,61.80
2023-05-19T08:54:41.019Z,62.40
2023-05-19T08:57:08.128Z,63.00
2023-05-19T08:59:36.860Z,62.90
2023-05-19T09:02:07.545Z,63.50
2023-05-19T09:04:34.914Z,63.70
2023-05-19T09:07:03.432Z,63.40
2023-05-19T09:09:30.524Z,63.40
2023-05-19T09:11:59.965Z,63.70
2023-05-19T09:14:26.706Z,64.10
2023-05-19T09:16:54.361Z,64.00
2023-05-19T09:19:21.244Z,65.70
2023-05-19T09:22:00.013Z,63.80
2023-05-19T09:24:27.050Z,63.50
2023-05-19T09:26:57.636Z,63.70
2023-05-19T09:29:26.096Z,62.80
2023-05-19T09:31:54.407Z,64.70
2023-05-19T09:34:22.410Z,62.70
2023-05-19T09:36:53.824Z,62.50
2023-05-19T09:39:22.090Z,61.80
2023-05-19T09:41:53.758Z,62.40
2023-05-19T09:44:21.482Z,63.00
2023-05-19T09:46:51.537Z,63.00
2023-05-19T09:49:21.976Z,62.50
2023-05-19T09:51:55.420Z,62.20
2023-05-19T09:54:23.700Z,62.30
2023-05-19T09:57:03.856Z,62.50
2023-05-19T09:59:33.503Z,63.00
2023-05-19T10:02:01.324Z,62.90
2023-05-19T10:04:29.943Z,63.00
2023-05-19T10:06:59.667Z,62.50
2023-05-19T10:09:27.662Z,62.60
2023-05-19T10:11:58.303Z,62.20
2023-05-19T10:14:25.838Z,62.20
2023-05-19T10:16:55.990Z,61.60
2023-05-19T10:19:24.270Z,61.20
2023-05-19T10:21:51.569Z,61.90
2023-05-19T10:24:18.747Z,62.50
2023-05-19T10:26:46.870Z,62.00
2023-05-19T10:29:15.869Z,62.50
2023-05-19T10:31:43.367Z,63.10
2023-05-19T10:34:10.204Z,63.70
2023-05-19T10:36:45.930Z,63.00
2023-05-19T10:39:25.358Z,63.60
2023-05-19T10:42:07.319Z,62.40
2023-05-19T10:44:39.857Z,63.40
2023-05-19T10:47:07.369Z,62.10
2023-05-19T10:49:37.778Z,62.10
2023-05-19T10:52:04.584Z,61.60
2023-05-19T10:54:46.766Z,61.70
2023-05-19T10:57:18.067Z,61.10
2023-05-19T10:59:44.835Z,60.40
2023-05-19T11:02:31.731Z,60.30
2023-05-19T11:05:07.565Z,59.70
2023-05-19T11:07:34.744Z,60.20
2023-05-19T11:10:05.186Z,60.10
2023-05-19T11:12:39.606Z,60.40
2023-05-19T11:15:07.476Z,57.80
2023-05-19T11:17:35.399Z,59.70
2023-05-19T11:20:03.340Z,59.20
2023-05-19T11:22:30.459Z,59.50
2023-05-19T11:24:58.788Z,59.00
2023-05-19T11:27:26.069Z,58.60
2023-05-19T11:29:59.510Z,58.90
2023-05-19T11:32:27.445Z,58.70
2023-05-19T11:34:55.416Z,57.70
2023-05-19T11:37:22.200Z,56.40
2023-05-19T11:39:51.393Z,55.70
2023-05-19T11:42:18.326Z,56.90
2023-05-19T11:44:49.122Z,59.10
2023-05-19T11:47:16.826Z,58.10
2023-05-19T11:49:44.812Z,56.70
2023-05-19T11:52:11.628Z,56.80
2023-05-19T11:54:42.713Z,58.10
2023-05-19T11:57:16.452Z,58.30
2023-05-19T11:59:48.552Z,59.20
2023-05-19T12:02:19.768Z,57.10
2023-05-19T12:04:50.047Z,55.10
2023-05-19T12:07:18.348Z,55.80
2023-05-19T12:09:46.515Z,55.20
2023-05-19T12:12:17.028Z,54.40
2023-05-19T12:14:44.123Z,52.40
2023-05-19T12:17:16.758Z,52.60
2023-05-19T12:19:45.840Z,53.60
2023-05-19T12:22:13.045Z,54.50
2023-05-19T12:24:40.487Z,54.80
2023-05-19T12:27:09.605Z,52.50
2023-05-19T12:29:36.465Z,54.90
2023-05-19T12:32:03.268Z,54.40
2023-05-19T12:34:31.437Z,55.50
2023-05-19T12:36:58.302Z,53.40
2023-05-19T12:39:28.896Z,53.20
2023-05-19T12:42:11.068Z,50.90
2023-05-19T12:44:39.244Z,54.40
2023-05-19T12:47:07.407Z,52.50
2023-05-19T12:49:34.127Z,53.60
2023-05-19T12:52:05.638Z,53.90
2023-05-19T12:54:36.321Z,53.00
2023-05-19T12:57:06.311Z,52.00
2023-05-19T12:59:38.676Z,50.00
2023-05-19T13:02:06.555Z,51.60
2023-05-19T13:04:33.450Z,51.90
2023-05-19T13:07:00.508Z,51.60
2023-05-19T13:09:28.069Z,52.30
2023-05-19T13:11:55.476Z,53.00
2023-05-19T13:14:22.135Z,52.10
2023-05-19T13:16:49.291Z,52.00
2023-05-19T13:19:25.461Z,52.20
2023-05-19T13:21:52.874Z,53.40
2023-05-19T13:24:20.982Z,51.20
2023-05-19T13:26:49.140Z,50.80
2023-05-19T13:29:16.039Z,50.70
2023-05-19T13:31:42.765Z,51.80
2023-05-19T13:34:09.590Z,50.50
2023-05-19T13:36:36.589Z,50.80
2023-05-19T13:39:03.528Z,50.00
2023-05-19T13:41:30.286Z,51.90
2023-05-19T13:44:01.003Z,49.50
2023-05-19T13:46:40.898Z,50.60
2023-05-19T13:49:11.944Z,50.90
2023-05-19T13:51:42.275Z,50.00
2023-05-19T13:54:09.184Z,50.30
2023-05-19T13:56:36.295Z,50.80
2023-05-19T13:59:04.826Z,51.10
2023-05-19T14:01:31.582Z,51.80
2023-05-19T14:03:58.646Z,51.90
2023-05-19T14:06:27.903Z,52.30
2023-05-19T14:08:54.768Z,53.40
2023-05-19T14:11:21.762Z,52.90
2023-05-19T14:13:52.367Z,51.60
2023-05-19T14:16:20.602Z,51.50
2023-05-19T14:18:47.507Z,50.90
2023-05-19T14:21:15.032Z,51.40
2023-05-19T14:23:41.781Z,52.50
2023-05-19T14:26:08.652Z,52.50
2023-05-19T14:28:35.301Z,52.90
2023-05-19T14:31:02.064Z,51.60
2023-05-19T14:33:31.133Z,52.00
2023-05-19T14:36:01.591Z,51.40
2023-05-19T14:38:29.482Z,52.20
2023-05-19T14:40:57.063Z,51.10
2023-05-19T14:43:23.955Z,52.50
2023-05-19T14:45:50.799Z,52.30
2023-05-19T14:48:18.835Z,53.20
2023-05-19T14:50:48.086Z,53.20
2023-05-19T14:53:14.903Z,53.90
2023-05-19T14:55:41.829Z,53.20
2023-05-19T14:58:23.527Z,53.30
2023-05-19T15:00:54.060Z,53.10
2023-05-19T15:03:21.023Z,53.20
2023-05-19T15:05:49.358Z,54.00
2023-05-19T15:08:16.087Z,54.30
2023-05-19T15:10:42.982Z,54.80
2023-05-19T15:13:09.821Z,54.10
2023-05-19T15:15:36.678Z,54.30
2023-05-19T15:18:03.397Z,55.30
2023-05-19T15:20:30.395Z,54.60
2023-05-19T15:22:57.044Z,54.00
2023-05-19T15:25:23.774Z,54.30
2023-05-19T15:27:52.785Z,54.30
2023-05-19T15:30:19.613Z,54.30
2023-05-19T15:32:46.620Z,54.80
2023-05-19T15:35:13.266Z,55.10
2023-05-19T15:37:41.304Z,55.20
2023-05-19T15:40:08.269Z,55.10
2023-05-19T15:42:35.154Z,55.70
2023-05-19T15:45:01.889Z,55.10
2023-05-19T15:47:28.613Z,54.40
2023-05-19T15:49:55.647Z,55.30
2023-05-19T15:52:24.644Z,55.40
2023-05-19T15:54:51.375Z,56.20
2023-05-19T15:57:18.094Z,56.50
2023-05-19T15:59:45.295Z,55.90
2023-05-19T16:02:12.060Z,55.60
2023-05-19T16:04:39.259Z,56.40
2023-05-19T16:07:06.123Z,56.90
2023-05-19T16:09:34.137Z,55.70
2023-05-19T16:12:01.057Z,56.00
2023-05-19T16:14:32.397Z,56.00
2023-05-19T16:17:01.396Z,56.60
2023-05-19T16:19:28.334Z,56.30
2023-05-19T16:21:55.642Z,56.60
2023-05-19T16:24:23.311Z,56.80
2023-05-19T16:26:50.052Z,57.20
2023-05-19T16:29:16.713Z,58.10
2023-05-19T16:31:43.620Z,57.70
2023-05-19T16:34:11.751Z,57.90
2023-05-19T16:36:38.658Z,58.30
2023-05-19T16:39:05.669Z,58.30
2023-05-19T16:41:32.522Z,58.60
2023-05-19T16:43:59.541Z,59.40
2023-05-19T16:46:27.877Z,59.20
2023-05-19T16:48:56.297Z,59.60
2023-05-19T16:51:23.192Z,59.80
2023-05-19T16:53:50.031Z,59.40
2023-05-19T16:56:16.905Z,59.50
2023-05-19T16:58:43.754Z,59.60
2023-05-19T17:01:11.957Z,59.90
2023-05-19T17:03:39.076Z,60.00
2023-05-19T17:06:05.971Z,60.10
2023-05-19T17:08:32.911Z,61.20
2023-05-19T17:10:59.596Z,60.20
2023-05-19T17:13:28.668Z,60.20
2023-05-19T17:15:55.282Z,60.40
2023-05-19T17:18:22.001Z,60.80
2023-05-19T17:20:48.651Z,60.60
2023-05-19T17:23:15.667Z,61.10
2023-05-19T17:25:42.428Z,61.20
2023-05-19T17:28:09.350Z,61.50
2023-05-19T17:30:36.567Z,61.50
2023-05-19T17:33:03.742Z,61.90
2023-05-19T17:35:30.820Z,61.80
2023-05-19T17:38:00.153Z,61.90
2023-05-19T17:40:29.482Z,61.60
2023-05-19T17:42:56.159Z,61.30
2023-05-19T17:45:22.966Z,61.70
2023-05-19T17:47:49.648Z,61.80
2023-05-19T17:50:16.368Z,62.00
2023-05-19T17:52:43.269Z,61.90
2023-05-19T17:55:11.022Z,61.90
2023-05-19T17:57:39.410Z,62.10
2023-05-19T18:00:07.500Z,62.30
2023-05-19T18:02:36.596Z,62.40
2023-05-19T18:05:04.070Z,62.80
2023-05-19T18:07:32.612Z,63.80
2023-05-19T18:10:00.883Z,63.70
2023-05-19T18:12:29.956Z,63.20
2023-05-19T18:14:56.792Z,64.20
2023-05-19T18:17:23.439Z,64.10
2023-05-19T18:19:50.417Z,64.10
2023-05-19T18:22:17.703Z,64.20
2023-05-19T18:24:44.610Z,64.80
2023-05-19T18:27:11.266Z,64.80
2023-05-19T18:29:38.017Z,65.10
2023-05-19T18:32:05.295Z,65.20
2023-05-19T18:34:32.014Z,65.30
2023-05-19T18:36:58.876Z,65.70
2023-05-19T18:39:27.276Z,65.90
2023-05-19T18:41:56.160Z,66.20
2023-05-19T18:44:22.817Z,66.40
2023-05-19T18:46:51.763Z,66.70
2023-05-19T18:49:18.508Z,66.70
2023-05-19T18:51:48.308Z,67.10
2023-05-19T18:54:14.965Z,67.10
2023-05-19T18:56:41.869Z,67.10
2023-05-19T18:59:10.053Z,67.10
2023-05-19T19:01:36.782Z,67.40
2023-05-19T19:04:04.138Z,67.70
2023-05-19T19:06:31.241Z,67.80
2023-05-19T19:08:58.270Z,68.20
2023-05-19T19:11:24.945Z,68.10
2023-05-19T19:13:54.417Z,68.60
2023-05-19T19:16:21.265Z,68.70
2023-05-19T19:18:48.335Z,68.50
2023-05-19T19:21:15.168Z,68.90
2023-05-19T19:23:41.882Z,68.70
2023-05-19T19:26:09.742Z,69.00
2023-05-19T19:28:37.178Z,69.00
2023-05-19T19:31:04.152Z,69.30
2023-05-19T19:33:30.979Z,69.10
2023-05-19T19:35:57.666Z,69.50
2023-05-19T19:38:24.464Z,69.50
2023-05-19T19:40:52.438Z,69.90
2023-05-19T19:43:20.057Z,69.70
2023-05-19T19:45:46.718Z,69.70
2023-05-19T19:48:14.847Z,70.00
2023-05-19T19:50:42.036Z,70.00
2023-05-19T19:53:08.900Z,70.00
2023-05-19T19:55:35.787Z,69.90
2023-05-19T19:58:02.489Z,70.00
2023-05-19T20:00:29.169Z,70.40
2023-05-19T20:03:05.195Z,70.50
2023-05-19T20:05:32.849Z,71.10
2023-05-19T20:07:59.705Z,70.90
2023-05-19T20:10:26.367Z,71.00
2023-05-19T20:12:53.302Z,71.20
2023-05-19T20:15:20.015Z,71.60
2023-05-19T20:17:46.820Z,71.70
2023-05-19T20:20:13.679Z,72.20
2023-05-19T20:22:40.435Z,72.10
2023-05-19T20:25:07.286Z,72.70
2023-05-19T20:27:34.348Z,72.60
2023-05-19T20:30:01.199Z,73.30
2023-05-19T20:32:28.177Z,73.90
2023-05-19T20:34:55.912Z,73.90
2023-05-19T20:37:22.840Z,74.80
2023-05-19T20:39:49.495Z,75.10
2023-05-19T20:42:16.334Z,75.30
2023-05-19T20:44:43.374Z,75.60
2023-05-19T20:47:10.675Z,76.20
2023-05-19T20:49:37.378Z,76.70
2023-05-19T20:52:04.424Z,77.00
2023-05-19T20:54:31.146Z,77.50
2023-05-19T20:56:57.877Z,77.60
2023-05-19T20:59:24.733Z,77.80
2023-05-19T21:01:51.395Z,78.40
2023-05-19T21:04:18.358Z,78.10
2023-05-19T21:06:45.076Z,78.00
2023-05-19T21:09:12.221Z,78.60
2023-05-19T21:11:38.927Z,78.70
2023-05-19T21:14:06.819Z,78.60
2023-05-19T21:16:34.287Z,79.50
2023-05-19T21:19:01.850Z,79.60
2023-05-19T21:21:29.035Z,80.10
2023-05-19T21:23:56.774Z,80.20
2023-05-19T21:26:23.685Z,79.60
2023-05-19T21:28:51.750Z,80.50
2023-05-19T21:31:18.709Z,80.20
2023-05-19T21:33:45.707Z,80.20
2023-05-19T21:36:12.491Z,79.80
2023-05-19T21:38:39.162Z,81.60
2023-05-19T21:41:06.280Z,80.30
2023-05-19T21:43:32.913Z,80.30
2023-05-19T21:45:59.828Z,81.30
2023-05-19T21:48:26.543Z,82.10
2023-05-19T21:50:54.868Z,81.50
2023-05-19T21:53:21.598Z,81.60
2023-05-19T21:55:48.248Z,81.70
2023-05-19T21:58:15.207Z,81.70
2023-05-19T22:00:42.083Z,82.30
2023-05-19T22:03:09.176Z,81.90
2023-05-19T22:05:37.999Z,82.30
2023-05-19T22:08:04.858Z,82.50
2023-05-19T22:10:32.371Z,82.70
2023-05-19T22:13:00.363Z,83.10
2023-05-19T22:15:27.102Z,83.30
2023-05-19T22:17:53.849Z,82.90
2023-05-19T22:20:20.570Z,82.40
2023-05-19T22:22:47.180Z,83.40
2023-05-19T22:25:15.114Z,83.40
2023-05-19T22:27:41.785Z,82.70
2023-05-19T22:30:08.938Z,82.70
2023-05-19T22:32:36.468Z,84.00
2023-05-19T22:35:03.343Z,84.10
2023-05-19T22:37:30.382Z,84.00
2023-05-19T22:39:57.513Z,83.90
2023-05-19T22:42:24.419Z,84.60
2023-05-19T22:44:51.181Z,84.70
2023-05-19T22:47:17.999Z,84.40
2023-05-19T22:49:44.832Z,84.20
2023-05-19T22:52:11.686Z,84.40
2023-05-19T22:54:38.393Z,85.20
2023-05-19T22:57:05.204Z,85.40
2023-05-19T22:59:32.240Z,85.90
2023-05-19T23:01:58.943Z,85.70
2023-05-19T23:04:26.506Z,85.90
2023-05-19T23:06:53.504Z,85.20
2023-05-19T23:09:20.444Z,86.00
2023-05-19T23:11:47.347Z,86.20
2023-05-19T23:14:14.221Z,85.70
2023-05-19T23:16:41.221Z,86.10
2023-05-19T23:19:08.214Z,86.30
2023-05-19T23:21:35.263Z,86.30
2023-05-19T23:24:01.951Z,86.20
2023-05-19T23:26:28.867Z,86.40
2023-05-19T23:28:55.511Z,85.60
2023-05-19T23:31:22.432Z,85.40
2023-05-19T23:33:49.231Z,86.30
2023-05-19T23:36:16.289Z,86.30
2023-05-19T23:38:44.470Z,86.30
2023-05-19T23:41:11.219Z,86.40
2023-05-19T23:43:37.991Z,86.00
2023-05-19T23:46:04.898Z,86.20
2023-05-19T23:48:32.504Z,85.90
2023-05-19T23:50:59.164Z,85.60
2023-05-19T23:53:26.158Z,86.00
2023-05-19T23:55:54.979Z,85.70
2023-05-19T23:58:23.628Z,86.00
